CheckWX is a tool to help pilots better visualize weather data.  It is not intended as a substitute for an official pre-flight weather briefing.

18:04:24 UTC

2W6 METAR
St Mary's County Regional Airport
Leonardtown, Maryland, USA
Current

21 mins ago

K2W6 211743Z AUTO 27003KT 10SM CLR 35/23 A2991 RMK AO1
Observed
Jul-21 @ 17:43 UTC
Wind
  • 270° at 3 KTS
Visibility
10 SM
Flight Rules
VFR
Cloud Levels
  • Clear skies
Temperature
35°C / 95°F
Dewpoint
23°C / 73°F
Heat Index
41°C / 105°F
Humidity
50%
Altimeter
29.91" Hg
Pressure
1012.92 hPa
Previous

41 mins ago

K2W6 211723Z AUTO 28005KT 10SM SCT049 35/22 A2991 RMK AO1
Observed
Jul-21 @ 17:23 UTC
Wind
  • 280° at 5 KTS
Visibility
10 SM
Flight Rules
VFR
Cloud Levels
  • Scattered at 4,900' AGL
Temperature
35°C / 95°F
Dewpoint
22°C / 72°F
Heat Index
39°C / 103°F
Humidity
47%
Altimeter
29.91" Hg
Pressure
1012.92 hPa
Previous

1 hour ago

K2W6 211703Z AUTO 25005KT 10SM SCT049 35/22 A2991 RMK AO1
Observed
Jul-21 @ 17:03 UTC
Wind
  • 250° at 5 KTS
Visibility
10 SM
Flight Rules
VFR
Cloud Levels
  • Scattered at 4,900' AGL
Temperature
35°C / 95°F
Dewpoint
22°C / 72°F
Heat Index
39°C / 103°F
Humidity
47%
Altimeter
29.91" Hg
Pressure
1012.92 hPa